sensor_id;sensor_type;location;lat;lon;timestamp;P1;durP1;ratioP1;P2;durP2;ratioP2
23260;SDS011;11799;47.740;-3.390;2023-06-22T00:00:43;7.68;;;4.85;;
23260;SDS011;11799;47.740;-3.390;2023-06-22T00:03:09;5.95;;;4.43;;
23260;SDS011;11799;47.740;-3.390;2023-06-22T00:05:35;5.28;;;3.95;;
23260;SDS011;11799;47.740;-3.390;2023-06-22T00:08:03;4.97;;;4.43;;
23260;SDS011;11799;47.740;-3.390;2023-06-22T00:10:32;7.95;;;4.22;;
23260;SDS011;11799;47.740;-3.390;2023-06-22T00:12:58;5.35;;;4.03;;
23260;SDS011;11799;47.740;-3.390;2023-06-22T00:15:23;5.75;;;4.28;;
23260;SDS011;11799;47.740;-3.390;2023-06-22T00:17:49;11.00;;;4.50;;
23260;SDS011;11799;47.740;-3.390;2023-06-22T00:20:15;6.45;;;4.10;;
23260;SDS011;11799;47.740;-3.390;2023-06-22T00:22:43;4.68;;;4.22;;
23260;SDS011;11799;47.740;-3.390;2023-06-22T00:25:09;4.82;;;3.90;;
23260;SDS011;11799;47.740;-3.390;2023-06-22T00:27:35;5.60;;;4.13;;
23260;SDS011;11799;47.740;-3.390;2023-06-22T00:30:02;11.48;;;4.75;;
23260;SDS011;11799;47.740;-3.390;2023-06-22T00:32:28;6.30;;;4.25;;
23260;SDS011;11799;47.740;-3.390;2023-06-22T00:34:53;4.50;;;3.83;;
23260;SDS011;11799;47.740;-3.390;2023-06-22T00:37:19;5.88;;;4.00;;
23260;SDS011;11799;47.740;-3.390;2023-06-22T00:39:47;5.22;;;4.10;;
23260;SDS011;11799;47.740;-3.390;2023-06-22T00:42:13;5.28;;;4.00;;
23260;SDS011;11799;47.740;-3.390;2023-06-22T00:44:39;5.85;;;4.25;;
23260;SDS011;11799;47.740;-3.390;2023-06-22T00:47:04;4.68;;;3.90;;
23260;SDS011;11799;47.740;-3.390;2023-06-22T00:49:31;5.10;;;4.15;;
23260;SDS011;11799;47.740;-3.390;2023-06-22T00:51:57;5.53;;;4.05;;
23260;SDS011;11799;47.740;-3.390;2023-06-22T00:54:23;4.57;;;3.90;;
23260;SDS011;11799;47.740;-3.390;2023-06-22T00:57:02;5.22;;;4.15;;
23260;SDS011;11799;47.740;-3.390;2023-06-22T00:59:27;5.07;;;3.90;;
23260;SDS011;11799;47.740;-3.390;2023-06-22T01:01:54;5.53;;;4.38;;
23260;SDS011;11799;47.740;-3.390;2023-06-22T01:04:21;7.35;;;3.88;;
23260;SDS011;11799;47.740;-3.390;2023-06-22T01:06:58;6.32;;;4.03;;
23260;SDS011;11799;47.740;-3.390;2023-06-22T01:12:50;5.40;;;3.90;;
23260;SDS011;11799;47.740;-3.390;2023-06-22T01:17:56;4.13;;;3.70;;
23260;SDS011;11799;47.740;-3.390;2023-06-22T01:20:23;7.40;;;3.80;;
23260;SDS011;11799;47.740;-3.390;2023-06-22T01:26:02;4.70;;;3.75;;
23260;SDS011;11799;47.740;-3.390;2023-06-22T01:31:16;6.32;;;3.58;;
23260;SDS011;11799;47.740;-3.390;2023-06-22T01:33:45;4.28;;;3.53;;
23260;SDS011;11799;47.740;-3.390;2023-06-22T01:36:13;4.47;;;3.65;;
23260;SDS011;11799;47.740;-3.390;2023-06-22T01:38:41;5.10;;;4.28;;
23260;SDS011;11799;47.740;-3.390;2023-06-22T01:41:07;4.20;;;3.40;;
23260;SDS011;11799;47.740;-3.390;2023-06-22T01:43:33;5.43;;;3.47;;
23260;SDS011;11799;47.740;-3.390;2023-06-22T01:46:01;5.60;;;3.83;;
23260;SDS011;11799;47.740;-3.390;2023-06-22T01:48:28;4.70;;;3.65;;
23260;SDS011;11799;47.740;-3.390;2023-06-22T01:50:54;4.80;;;3.17;;
23260;SDS011;11799;47.740;-3.390;2023-06-22T01:53:21;4.68;;;3.28;;
23260;SDS011;11799;47.740;-3.390;2023-06-22T01:55:47;3.95;;;3.35;;
23260;SDS011;11799;47.740;-3.390;2023-06-22T01:58:13;4.22;;;3.35;;
23260;SDS011;11799;47.740;-3.390;2023-06-22T02:00:40;5.40;;;3.20;;
23260;SDS011;11799;47.740;-3.390;2023-06-22T02:05:46;5.70;;;3.35;;
23260;SDS011;11799;47.740;-3.390;2023-06-22T02:08:17;5.60;;;3.42;;
23260;SDS011;11799;47.740;-3.390;2023-06-22T02:10:46;3.83;;;3.20;;
23260;SDS011;11799;47.740;-3.390;2023-06-22T02:13:13;6.03;;;3.40;;
23260;SDS011;11799;47.740;-3.390;2023-06-22T02:15:41;4.07;;;3.22;;
23260;SDS011;11799;47.740;-3.390;2023-06-22T02:18:07;4.03;;;3.42;;
23260;SDS011;11799;47.740;-3.390;2023-06-22T02:20:35;4.30;;;3.20;;
23260;SDS011;11799;47.740;-3.390;2023-06-22T02:23:02;3.90;;;3.00;;
23260;SDS011;11799;47.740;-3.390;2023-06-22T02:25:27;4.30;;;3.20;;
23260;SDS011;11799;47.740;-3.390;2023-06-22T02:27:53;4.05;;;2.83;;
23260;SDS011;11799;47.740;-3.390;2023-06-22T02:30:19;3.53;;;3.20;;
23260;SDS011;11799;47.740;-3.390;2023-06-22T02:32:44;4.97;;;3.15;;
23260;SDS011;11799;47.740;-3.390;2023-06-22T02:35:10;3.40;;;3.10;;
23260;SDS011;11799;47.740;-3.390;2023-06-22T02:37:36;4.78;;;3.17;;
23260;SDS011;11799;47.740;-3.390;2023-06-22T02:40:09;3.05;;;2.75;;
23260;SDS011;11799;47.740;-3.390;2023-06-22T02:42:35;5.78;;;3.30;;
23260;SDS011;11799;47.740;-3.390;2023-06-22T02:45:04;3.38;;;2.80;;
23260;SDS011;11799;47.740;-3.390;2023-06-22T02:47:30;4.10;;;3.05;;
23260;SDS011;11799;47.740;-3.390;2023-06-22T02:49:56;3.25;;;2.95;;
23260;SDS011;11799;47.740;-3.390;2023-06-22T02:52:23;4.05;;;3.25;;
23260;SDS011;11799;47.740;-3.390;2023-06-22T02:54:48;4.25;;;3.17;;
23260;SDS011;11799;47.740;-3.390;2023-06-22T02:57:14;4.05;;;3.13;;
23260;SDS011;11799;47.740;-3.390;2023-06-22T02:59:41;3.17;;;2.85;;
23260;SDS011;11799;47.740;-3.390;2023-06-22T03:02:09;5.43;;;2.88;;
23260;SDS011;11799;47.740;-3.390;2023-06-22T03:04:35;3.38;;;2.70;;
23260;SDS011;11799;47.740;-3.390;2023-06-22T03:07:01;3.70;;;2.83;;
23260;SDS011;11799;47.740;-3.390;2023-06-22T03:09:28;5.45;;;3.30;;
23260;SDS011;11799;47.740;-3.390;2023-06-22T03:11:56;3.95;;;3.10;;
23260;SDS011;11799;47.740;-3.390;2023-06-22T03:14:24;3.60;;;3.00;;
23260;SDS011;11799;47.740;-3.390;2023-06-22T03:16:51;4.47;;;2.90;;
23260;SDS011;11799;47.740;-3.390;2023-06-22T03:19:18;3.92;;;3.05;;
23260;SDS011;11799;47.740;-3.390;2023-06-22T03:21:44;3.72;;;2.88;;
23260;SDS011;11799;47.740;-3.390;2023-06-22T03:24:10;4.30;;;2.95;;
23260;SDS011;11799;47.740;-3.390;2023-06-22T03:26:37;7.40;;;3.00;;
23260;SDS011;11799;47.740;-3.390;2023-06-22T03:29:02;3.88;;;3.10;;
23260;SDS011;11799;47.740;-3.390;2023-06-22T03:31:29;3.83;;;3.40;;
23260;SDS011;11799;47.740;-3.390;2023-06-22T03:33:55;7.38;;;3.33;;
23260;SDS011;11799;47.740;-3.390;2023-06-22T03:36:22;5.22;;;2.95;;
23260;SDS011;11799;47.740;-3.390;2023-06-22T03:38:49;4.55;;;3.00;;
23260;SDS011;11799;47.740;-3.390;2023-06-22T03:41:15;4.13;;;3.17;;
23260;SDS011;11799;47.740;-3.390;2023-06-22T03:43:41;4.43;;;3.00;;
23260;SDS011;11799;47.740;-3.390;2023-06-22T03:46:07;3.42;;;3.13;;
23260;SDS011;11799;47.740;-3.390;2023-06-22T03:48:33;3.35;;;3.03;;
23260;SDS011;11799;47.740;-3.390;2023-06-22T03:50:59;3.85;;;3.08;;
23260;SDS011;11799;47.740;-3.390;2023-06-22T03:53:25;4.10;;;3.10;;
23260;SDS011;11799;47.740;-3.390;2023-06-22T03:55:51;2.97;;;2.65;;
23260;SDS011;11799;47.740;-3.390;2023-06-22T03:58:20;3.35;;;3.03;;
23260;SDS011;11799;47.740;-3.390;2023-06-22T04:00:50;7.40;;;4.28;;
23260;SDS011;11799;47.740;-3.390;2023-06-22T04:03:16;4.13;;;3.20;;
23260;SDS011;11799;47.740;-3.390;2023-06-22T04:05:46;4.43;;;3.27;;
23260;SDS011;11799;47.740;-3.390;2023-06-22T04:08:12;7.70;;;3.63;;
23260;SDS011;11799;47.740;-3.390;2023-06-22T04:10:38;3.42;;;2.92;;
23260;SDS011;11799;47.740;-3.390;2023-06-22T04:13:04;3.72;;;3.30;;
23260;SDS011;11799;47.740;-3.390;2023-06-22T04:15:29;3.92;;;3.25;;
23260;SDS011;11799;47.740;-3.390;2023-06-22T04:17:55;3.58;;;3.22;;
23260;SDS011;11799;47.740;-3.390;2023-06-22T04:20:21;3.78;;;3.20;;
23260;SDS011;11799;47.740;-3.390;2023-06-22T04:22:47;3.80;;;3.38;;
23260;SDS011;11799;47.740;-3.390;2023-06-22T04:25:12;5.28;;;3.53;;
23260;SDS011;11799;47.740;-3.390;2023-06-22T04:27:39;3.60;;;3.30;;
23260;SDS011;11799;47.740;-3.390;2023-06-22T04:30:06;6.03;;;3.15;;
23260;SDS011;11799;47.740;-3.390;2023-06-22T04:32:35;3.22;;;2.92;;
23260;SDS011;11799;47.740;-3.390;2023-06-22T04:35:01;3.80;;;2.92;;
23260;SDS011;11799;47.740;-3.390;2023-06-22T04:37:30;3.55;;;3.20;;
23260;SDS011;11799;47.740;-3.390;2023-06-22T04:39:56;3.70;;;3.40;;
23260;SDS011;11799;47.740;-3.390;2023-06-22T04:42:22;6.40;;;3.65;;
23260;SDS011;11799;47.740;-3.390;2023-06-22T04:44:47;3.30;;;3.00;;
23260;SDS011;11799;47.740;-3.390;2023-06-22T04:47:13;5.07;;;3.28;;
23260;SDS011;11799;47.740;-3.390;2023-06-22T04:49:38;4.80;;;3.35;;
23260;SDS011;11799;47.740;-3.390;2023-06-22T04:52:08;6.15;;;3.70;;
23260;SDS011;11799;47.740;-3.390;2023-06-22T04:54:36;4.57;;;3.63;;
23260;SDS011;11799;47.740;-3.390;2023-06-22T04:57:04;3.92;;;3.50;;
23260;SDS011;11799;47.740;-3.390;2023-06-22T04:59:36;5.10;;;3.70;;
23260;SDS011;11799;47.740;-3.390;2023-06-22T05:02:04;4.28;;;3.88;;
23260;SDS011;11799;47.740;-3.390;2023-06-22T05:04:31;4.78;;;3.60;;
23260;SDS011;11799;47.740;-3.390;2023-06-22T05:06:57;4.22;;;3.83;;
23260;SDS011;11799;47.740;-3.390;2023-06-22T05:09:23;5.68;;;3.95;;
23260;SDS011;11799;47.740;-3.390;2023-06-22T05:11:50;5.88;;;4.03;;
23260;SDS011;11799;47.740;-3.390;2023-06-22T05:14:16;6.10;;;3.95;;
23260;SDS011;11799;47.740;-3.390;2023-06-22T05:16:42;5.30;;;3.90;;
23260;SDS011;11799;47.740;-3.390;2023-06-22T05:19:08;4.45;;;3.40;;
23260;SDS011;11799;47.740;-3.390;2023-06-22T05:21:34;7.20;;;3.95;;
23260;SDS011;11799;47.740;-3.390;2023-06-22T05:23:59;4.78;;;3.78;;
23260;SDS011;11799;47.740;-3.390;2023-06-22T05:26:28;4.88;;;3.78;;
23260;SDS011;11799;47.740;-3.390;2023-06-22T05:28:55;4.43;;;3.70;;
23260;SDS011;11799;47.740;-3.390;2023-06-22T05:31:22;3.90;;;3.50;;
23260;SDS011;11799;47.740;-3.390;2023-06-22T05:33:48;5.43;;;3.65;;
23260;SDS011;11799;47.740;-3.390;2023-06-22T05:36:16;4.95;;;3.55;;
23260;SDS011;11799;47.740;-3.390;2023-06-22T05:38:45;6.60;;;3.60;;
23260;SDS011;11799;47.740;-3.390;2023-06-22T05:41:10;3.83;;;3.28;;
23260;SDS011;11799;47.740;-3.390;2023-06-22T05:43:36;4.75;;;3.60;;
23260;SDS011;11799;47.740;-3.390;2023-06-22T05:46:02;6.65;;;3.97;;
23260;SDS011;11799;47.740;-3.390;2023-06-22T05:48:29;5.82;;;3.67;;
23260;SDS011;11799;47.740;-3.390;2023-06-22T05:50:54;4.40;;;3.55;;
23260;SDS011;11799;47.740;-3.390;2023-06-22T05:53:20;5.40;;;3.80;;
23260;SDS011;11799;47.740;-3.390;2023-06-22T05:55:46;5.90;;;3.63;;
23260;SDS011;11799;47.740;-3.390;2023-06-22T05:58:11;4.57;;;3.13;;
23260;SDS011;11799;47.740;-3.390;2023-06-22T06:00:38;4.45;;;3.33;;
23260;SDS011;11799;47.740;-3.390;2023-06-22T06:03:04;6.20;;;3.53;;
23260;SDS011;11799;47.740;-3.390;2023-06-22T06:05:30;5.65;;;3.30;;
23260;SDS011;11799;47.740;-3.390;2023-06-22T06:07:56;4.82;;;3.33;;
23260;SDS011;11799;47.740;-3.390;2023-06-22T06:10:22;4.43;;;3.20;;
23260;SDS011;11799;47.740;-3.390;2023-06-22T06:12:48;3.25;;;2.95;;
23260;SDS011;11799;47.740;-3.390;2023-06-22T06:15:14;4.15;;;3.30;;
23260;SDS011;11799;47.740;-3.390;2023-06-22T06:17:52;4.03;;;3.60;;
23260;SDS011;11799;47.740;-3.390;2023-06-22T06:20:19;5.70;;;3.25;;
23260;SDS011;11799;47.740;-3.390;2023-06-22T06:22:46;7.43;;;3.47;;
23260;SDS011;11799;47.740;-3.390;2023-06-22T06:25:12;4.50;;;3.30;;
23260;SDS011;11799;47.740;-3.390;2023-06-22T06:27:50;4.47;;;3.45;;
23260;SDS011;11799;47.740;-3.390;2023-06-22T06:30:17;4.50;;;3.17;;
23260;SDS011;11799;47.740;-3.390;2023-06-22T06:32:44;5.57;;;3.83;;
23260;SDS011;11799;47.740;-3.390;2023-06-22T06:35:11;5.47;;;3.40;;
23260;SDS011;11799;47.740;-3.390;2023-06-22T06:37:38;6.72;;;3.65;;
23260;SDS011;11799;47.740;-3.390;2023-06-22T06:40:09;4.20;;;3.00;;
23260;SDS011;11799;47.740;-3.390;2023-06-22T06:42:37;8.05;;;3.78;;
23260;SDS011;11799;47.740;-3.390;2023-06-22T06:45:06;6.70;;;3.17;;
23260;SDS011;11799;47.740;-3.390;2023-06-22T06:47:32;4.93;;;3.10;;
23260;SDS011;11799;47.740;-3.390;2023-06-22T06:49:57;6.55;;;3.30;;
23260;SDS011;11799;47.740;-3.390;2023-06-22T06:52:23;5.30;;;3.20;;
23260;SDS011;11799;47.740;-3.390;2023-06-22T06:54:48;4.18;;;2.75;;
23260;SDS011;11799;47.740;-3.390;2023-06-22T06:57:14;5.50;;;3.10;;
23260;SDS011;11799;47.740;-3.390;2023-06-22T06:59:40;4.45;;;3.13;;
23260;SDS011;11799;47.740;-3.390;2023-06-22T07:02:06;4.97;;;3.33;;
23260;SDS011;11799;47.740;-3.390;2023-06-22T07:04:32;3.25;;;2.80;;
23260;SDS011;11799;47.740;-3.390;2023-06-22T07:06:58;3.15;;;2.80;;
23260;SDS011;11799;47.740;-3.390;2023-06-22T07:09:26;4.93;;;2.88;;
23260;SDS011;11799;47.740;-3.390;2023-06-22T07:11:52;6.55;;;2.90;;
23260;SDS011;11799;47.740;-3.390;2023-06-22T07:14:17;4.55;;;2.70;;
23260;SDS011;11799;47.740;-3.390;2023-06-22T07:16:43;3.35;;;2.97;;
23260;SDS011;11799;47.740;-3.390;2023-06-22T07:19:10;3.58;;;2.58;;
23260;SDS011;11799;47.740;-3.390;2023-06-22T07:21:36;3.38;;;2.55;;
23260;SDS011;11799;47.740;-3.390;2023-06-22T07:24:02;3.20;;;2.60;;
23260;SDS011;11799;47.740;-3.390;2023-06-22T07:26:28;5.25;;;2.88;;
23260;SDS011;11799;47.740;-3.390;2023-06-22T07:28:53;3.05;;;2.75;;
23260;SDS011;11799;47.740;-3.390;2023-06-22T07:31:19;3.40;;;2.72;;
23260;SDS011;11799;47.740;-3.390;2023-06-22T07:33:44;3.97;;;2.88;;
23260;SDS011;11799;47.740;-3.390;2023-06-22T07:36:10;3.53;;;2.70;;
23260;SDS011;11799;47.740;-3.390;2023-06-22T07:38:36;4.22;;;2.78;;
23260;SDS011;11799;47.740;-3.390;2023-06-22T07:41:02;5.75;;;2.70;;
23260;SDS011;11799;47.740;-3.390;2023-06-22T07:43:30;3.50;;;2.70;;
23260;SDS011;11799;47.740;-3.390;2023-06-22T07:45:58;3.10;;;2.53;;
23260;SDS011;11799;47.740;-3.390;2023-06-22T07:48:23;3.28;;;2.60;;
23260;SDS011;11799;47.740;-3.390;2023-06-22T07:50:49;4.05;;;2.65;;
23260;SDS011;11799;47.740;-3.390;2023-06-22T07:53:15;4.40;;;2.67;;
23260;SDS011;11799;47.740;-3.390;2023-06-22T07:55:40;6.32;;;2.75;;
23260;SDS011;11799;47.740;-3.390;2023-06-22T07:58:06;5.30;;;2.42;;
23260;SDS011;11799;47.740;-3.390;2023-06-22T08:00:31;9.15;;;2.50;;
23260;SDS011;11799;47.740;-3.390;2023-06-22T08:02:58;4.85;;;2.40;;
23260;SDS011;11799;47.740;-3.390;2023-06-22T08:05:24;3.70;;;2.28;;
23260;SDS011;11799;47.740;-3.390;2023-06-22T08:07:49;2.65;;;2.45;;
23260;SDS011;11799;47.740;-3.390;2023-06-22T08:10:15;3.22;;;2.25;;
23260;SDS011;11799;47.740;-3.390;2023-06-22T08:12:41;5.10;;;2.63;;
23260;SDS011;11799;47.740;-3.390;2023-06-22T08:15:07;5.38;;;2.50;;
23260;SDS011;11799;47.740;-3.390;2023-06-22T08:17:34;2.85;;;2.20;;
23260;SDS011;11799;47.740;-3.390;2023-06-22T08:20:00;3.53;;;2.20;;
23260;SDS011;11799;47.740;-3.390;2023-06-22T08:22:25;2.83;;;2.30;;
23260;SDS011;11799;47.740;-3.390;2023-06-22T08:24:51;2.85;;;2.53;;
23260;SDS011;11799;47.740;-3.390;2023-06-22T08:27:16;3.08;;;2.53;;
23260;SDS011;11799;47.740;-3.390;2023-06-22T08:29:44;2.88;;;2.30;;
23260;SDS011;11799;47.740;-3.390;2023-06-22T08:32:11;3.80;;;2.40;;
23260;SDS011;11799;47.740;-3.390;2023-06-22T08:34:37;4.28;;;2.20;;
23260;SDS011;11799;47.740;-3.390;2023-06-22T08:37:07;4.25;;;2.38;;
23260;SDS011;11799;47.740;-3.390;2023-06-22T08:39:35;3.47;;;2.45;;
23260;SDS011;11799;47.740;-3.390;2023-06-22T08:42:01;2.97;;;2.38;;
23260;SDS011;11799;47.740;-3.390;2023-06-22T08:44:27;3.30;;;2.50;;
23260;SDS011;11799;47.740;-3.390;2023-06-22T08:46:52;3.40;;;2.28;;
23260;SDS011;11799;47.740;-3.390;2023-06-22T08:49:18;2.22;;;2.00;;
23260;SDS011;11799;47.740;-3.390;2023-06-22T08:51:43;2.60;;;2.40;;
23260;SDS011;11799;47.740;-3.390;2023-06-22T08:54:10;2.13;;;1.92;;
23260;SDS011;11799;47.740;-3.390;2023-06-22T08:56:36;3.97;;;2.35;;
23260;SDS011;11799;47.740;-3.390;2023-06-22T08:59:02;3.40;;;2.20;;
23260;SDS011;11799;47.740;-3.390;2023-06-22T09:01:27;2.38;;;2.10;;
23260;SDS011;11799;47.740;-3.390;2023-06-22T09:03:53;2.40;;;2.08;;
23260;SDS011;11799;47.740;-3.390;2023-06-22T09:06:23;3.20;;;2.13;;
23260;SDS011;11799;47.740;-3.390;2023-06-22T09:08:49;2.75;;;1.80;;
23260;SDS011;11799;47.740;-3.390;2023-06-22T09:11:15;2.33;;;2.00;;
23260;SDS011;11799;47.740;-3.390;2023-06-22T09:13:40;2.42;;;2.15;;
23260;SDS011;11799;47.740;-3.390;2023-06-22T09:16:06;2.67;;;2.00;;
23260;SDS011;11799;47.740;-3.390;2023-06-22T09:18:33;3.35;;;2.15;;
23260;SDS011;11799;47.740;-3.390;2023-06-22T09:20:59;2.50;;;2.20;;
23260;SDS011;11799;47.740;-3.390;2023-06-22T09:23:25;3.42;;;2.17;;
23260;SDS011;11799;47.740;-3.390;2023-06-22T09:25:50;3.13;;;2.20;;
23260;SDS011;11799;47.740;-3.390;2023-06-22T09:28:16;3.88;;;2.17;;
23260;SDS011;11799;47.740;-3.390;2023-06-22T09:30:44;2.67;;;2.10;;
23260;SDS011;11799;47.740;-3.390;2023-06-22T09:33:10;2.75;;;2.15;;
23260;SDS011;11799;47.740;-3.390;2023-06-22T09:35:36;2.28;;;2.03;;
23260;SDS011;11799;47.740;-3.390;2023-06-22T09:38:01;2.47;;;2.05;;
23260;SDS011;11799;47.740;-3.390;2023-06-22T09:40:27;4.57;;;2.50;;
23260;SDS011;11799;47.740;-3.390;2023-06-22T09:42:53;2.20;;;2.00;;
23260;SDS011;11799;47.740;-3.390;2023-06-22T09:45:18;3.65;;;2.45;;
23260;SDS011;11799;47.740;-3.390;2023-06-22T09:47:44;2.33;;;1.88;;
23260;SDS011;11799;47.740;-3.390;2023-06-22T09:50:09;3.22;;;2.30;;
23260;SDS011;11799;47.740;-3.390;2023-06-22T09:52:35;2.55;;;2.30;;
23260;SDS011;11799;47.740;-3.390;2023-06-22T09:55:01;2.88;;;2.00;;
23260;SDS011;11799;47.740;-3.390;2023-06-22T09:57:28;2.38;;;2.13;;
23260;SDS011;11799;47.740;-3.390;2023-06-22T09:59:54;3.40;;;2.33;;
23260;SDS011;11799;47.740;-3.390;2023-06-22T10:02:20;2.20;;;2.00;;
23260;SDS011;11799;47.740;-3.390;2023-06-22T10:04:45;3.38;;;2.13;;
23260;SDS011;11799;47.740;-3.390;2023-06-22T10:07:11;2.70;;;1.95;;
23260;SDS011;11799;47.740;-3.390;2023-06-22T10:09:37;4.80;;;2.38;;
23260;SDS011;11799;47.740;-3.390;2023-06-22T10:12:02;2.45;;;2.10;;
23260;SDS011;11799;47.740;-3.390;2023-06-22T10:14:28;2.53;;;2.15;;
23260;SDS011;11799;47.740;-3.390;2023-06-22T10:16:54;3.90;;;2.20;;
23260;SDS011;11799;47.740;-3.390;2023-06-22T10:19:20;2.33;;;2.13;;
23260;SDS011;11799;47.740;-3.390;2023-06-22T10:21:45;3.70;;;2.10;;
23260;SDS011;11799;47.740;-3.390;2023-06-22T10:24:11;2.65;;;1.80;;
23260;SDS011;11799;47.740;-3.390;2023-06-22T10:26:37;3.47;;;2.03;;
23260;SDS011;11799;47.740;-3.390;2023-06-22T10:29:02;3.95;;;2.05;;
23260;SDS011;11799;47.740;-3.390;2023-06-22T10:31:28;2.85;;;2.13;;
23260;SDS011;11799;47.740;-3.390;2023-06-22T10:33:54;2.38;;;1.80;;
23260;SDS011;11799;47.740;-3.390;2023-06-22T10:36:21;2.85;;;2.10;;
23260;SDS011;11799;47.740;-3.390;2023-06-22T10:38:47;3.15;;;2.67;;
23260;SDS011;11799;47.740;-3.390;2023-06-22T10:41:13;2.50;;;2.13;;
23260;SDS011;11799;47.740;-3.390;2023-06-22T10:43:39;4.45;;;2.30;;
23260;SDS011;11799;47.740;-3.390;2023-06-22T10:46:04;2.50;;;2.20;;
23260;SDS011;11799;47.740;-3.390;2023-06-22T10:48:30;2.28;;;2.08;;
23260;SDS011;11799;47.740;-3.390;2023-06-22T10:50:55;11.60;;;7.22;;
23260;SDS011;11799;47.740;-3.390;2023-06-22T10:53:21;7.60;;;5.53;;
23260;SDS011;11799;47.740;-3.390;2023-06-22T10:55:47;3.20;;;2.90;;
23260;SDS011;11799;47.740;-3.390;2023-06-22T10:58:12;3.03;;;2.38;;
23260;SDS011;11799;47.740;-3.390;2023-06-22T11:00:38;3.28;;;2.03;;
23260;SDS011;11799;47.740;-3.390;2023-06-22T11:03:04;12.05;;;10.18;;
23260;SDS011;11799;47.740;-3.390;2023-06-22T11:05:29;8.20;;;6.00;;
23260;SDS011;11799;47.740;-3.390;2023-06-22T11:07:55;3.75;;;2.40;;
23260;SDS011;11799;47.740;-3.390;2023-06-22T11:10:20;3.95;;;2.60;;
23260;SDS011;11799;47.740;-3.390;2023-06-22T11:12:46;4.55;;;2.28;;
23260;SDS011;11799;47.740;-3.390;2023-06-22T11:15:12;3.13;;;2.45;;
23260;SDS011;11799;47.740;-3.390;2023-06-22T11:17:37;2.90;;;2.47;;
23260;SDS011;11799;47.740;-3.390;2023-06-22T11:20:03;3.00;;;2.33;;
23260;SDS011;11799;47.740;-3.390;2023-06-22T11:22:36;2.50;;;2.30;;
23260;SDS011;11799;47.740;-3.390;2023-06-22T11:25:05;2.60;;;2.38;;
23260;SDS011;11799;47.740;-3.390;2023-06-22T11:27:31;2.80;;;2.50;;
23260;SDS011;11799;47.740;-3.390;2023-06-22T11:29:57;5.18;;;2.15;;
23260;SDS011;11799;47.740;-3.390;2023-06-22T11:32:23;3.20;;;2.33;;
23260;SDS011;11799;47.740;-3.390;2023-06-22T11:34:49;2.63;;;2.30;;
23260;SDS011;11799;47.740;-3.390;2023-06-22T11:37:15;2.72;;;2.50;;
23260;SDS011;11799;47.740;-3.390;2023-06-22T11:39:41;3.30;;;2.47;;
23260;SDS011;11799;47.740;-3.390;2023-06-22T11:42:07;3.33;;;2.38;;
23260;SDS011;11799;47.740;-3.390;2023-06-22T11:44:33;4.13;;;2.40;;
23260;SDS011;11799;47.740;-3.390;2023-06-22T11:46:59;2.28;;;1.85;;
23260;SDS011;11799;47.740;-3.390;2023-06-22T11:49:26;3.42;;;2.10;;
23260;SDS011;11799;47.740;-3.390;2023-06-22T11:51:52;4.25;;;2.35;;
23260;SDS011;11799;47.740;-3.390;2023-06-22T11:54:18;3.28;;;2.85;;
23260;SDS011;11799;47.740;-3.390;2023-06-22T11:56:43;3.67;;;2.47;;
23260;SDS011;11799;47.740;-3.390;2023-06-22T11:59:09;4.13;;;2.55;;
23260;SDS011;11799;47.740;-3.390;2023-06-22T12:01:35;3.05;;;2.20;;
23260;SDS011;11799;47.740;-3.390;2023-06-22T12:04:00;3.03;;;2.20;;
23260;SDS011;11799;47.740;-3.390;2023-06-22T12:06:26;3.22;;;2.30;;
23260;SDS011;11799;47.740;-3.390;2023-06-22T12:08:51;3.63;;;2.55;;
23260;SDS011;11799;47.740;-3.390;2023-06-22T12:11:17;3.15;;;2.50;;
23260;SDS011;11799;47.740;-3.390;2023-06-22T12:13:42;2.53;;;2.33;;
23260;SDS011;11799;47.740;-3.390;2023-06-22T12:16:08;3.35;;;2.15;;
23260;SDS011;11799;47.740;-3.390;2023-06-22T12:18:34;7.90;;;2.08;;
23260;SDS011;11799;47.740;-3.390;2023-06-22T12:20:59;2.78;;;1.90;;
23260;SDS011;11799;47.740;-3.390;2023-06-22T12:23:25;2.35;;;2.00;;
23260;SDS011;11799;47.740;-3.390;2023-06-22T12:25:50;2.55;;;2.13;;
23260;SDS011;11799;47.740;-3.390;2023-06-22T12:28:16;2.63;;;2.38;;
23260;SDS011;11799;47.740;-3.390;2023-06-22T12:30:42;2.15;;;2.00;;
23260;SDS011;11799;47.740;-3.390;2023-06-22T12:33:07;2.90;;;2.35;;
23260;SDS011;11799;47.740;-3.390;2023-06-22T12:35:34;2.83;;;2.08;;
23260;SDS011;11799;47.740;-3.390;2023-06-22T12:37:59;4.20;;;2.33;;
23260;SDS011;11799;47.740;-3.390;2023-06-22T12:40:25;3.25;;;1.90;;
23260;SDS011;11799;47.740;-3.390;2023-06-22T12:42:51;3.10;;;1.98;;
23260;SDS011;11799;47.740;-3.390;2023-06-22T12:45:16;2.35;;;1.77;;
23260;SDS011;11799;47.740;-3.390;2023-06-22T12:47:42;3.08;;;1.90;;
23260;SDS011;11799;47.740;-3.390;2023-06-22T12:50:08;2.20;;;2.00;;
23260;SDS011;11799;47.740;-3.390;2023-06-22T12:52:35;2.28;;;2.08;;
23260;SDS011;11799;47.740;-3.390;2023-06-22T12:55:04;2.70;;;2.13;;
23260;SDS011;11799;47.740;-3.390;2023-06-22T12:57:30;2.47;;;2.10;;
23260;SDS011;11799;47.740;-3.390;2023-06-22T12:59:55;2.38;;;2.13;;
23260;SDS011;11799;47.740;-3.390;2023-06-22T13:02:22;3.05;;;1.95;;
23260;SDS011;11799;47.740;-3.390;2023-06-22T13:04:47;2.10;;;1.88;;
23260;SDS011;11799;47.740;-3.390;2023-06-22T13:07:13;2.20;;;2.00;;
23260;SDS011;11799;47.740;-3.390;2023-06-22T13:09:38;2.25;;;1.83;;
23260;SDS011;11799;47.740;-3.390;2023-06-22T13:12:04;2.42;;;2.20;;
23260;SDS011;11799;47.740;-3.390;2023-06-22T13:14:30;2.65;;;2.40;;
23260;SDS011;11799;47.740;-3.390;2023-06-22T13:16:55;2.70;;;2.08;;
23260;SDS011;11799;47.740;-3.390;2023-06-22T13:19:21;3.53;;;2.00;;
23260;SDS011;11799;47.740;-3.390;2023-06-22T13:21:47;3.03;;;2.05;;
23260;SDS011;11799;47.740;-3.390;2023-06-22T13:24:12;2.30;;;1.98;;
23260;SDS011;11799;47.740;-3.390;2023-06-22T13:26:38;3.08;;;2.03;;
23260;SDS011;11799;47.740;-3.390;2023-06-22T13:29:04;2.50;;;2.10;;
23260;SDS011;11799;47.740;-3.390;2023-06-22T13:31:29;3.17;;;2.08;;
23260;SDS011;11799;47.740;-3.390;2023-06-22T13:33:55;5.20;;;1.85;;
23260;SDS011;11799;47.740;-3.390;2023-06-22T13:36:20;3.53;;;2.08;;
23260;SDS011;11799;47.740;-3.390;2023-06-22T13:38:48;3.88;;;1.80;;
23260;SDS011;11799;47.740;-3.390;2023-06-22T13:41:13;2.90;;;2.10;;
23260;SDS011;11799;47.740;-3.390;2023-06-22T13:43:39;2.58;;;2.00;;
23260;SDS011;11799;47.740;-3.390;2023-06-22T13:46:05;4.28;;;1.95;;
23260;SDS011;11799;47.740;-3.390;2023-06-22T13:48:30;2.47;;;1.90;;
23260;SDS011;11799;47.740;-3.390;2023-06-22T13:50:56;6.55;;;2.00;;
23260;SDS011;11799;47.740;-3.390;2023-06-22T13:53:24;3.88;;;2.20;;
23260;SDS011;11799;47.740;-3.390;2023-06-22T13:55:50;2.72;;;2.00;;
23260;SDS011;11799;47.740;-3.390;2023-06-22T13:58:16;2.47;;;1.98;;
23260;SDS011;11799;47.740;-3.390;2023-06-22T14:00:42;3.58;;;1.95;;
23260;SDS011;11799;47.740;-3.390;2023-06-22T14:03:07;2.13;;;1.75;;
23260;SDS011;11799;47.740;-3.390;2023-06-22T14:05:33;2.63;;;2.10;;
23260;SDS011;11799;47.740;-3.390;2023-06-22T14:07:58;4.30;;;1.90;;
23260;SDS011;11799;47.740;-3.390;2023-06-22T14:10:24;3.58;;;2.10;;
23260;SDS011;11799;47.740;-3.390;2023-06-22T14:12:49;3.25;;;2.00;;
23260;SDS011;11799;47.740;-3.390;2023-06-22T14:15:15;3.75;;;1.60;;
23260;SDS011;11799;47.740;-3.390;2023-06-22T14:17:41;4.03;;;1.88;;
23260;SDS011;11799;47.740;-3.390;2023-06-22T14:20:06;3.03;;;1.83;;
23260;SDS011;11799;47.740;-3.390;2023-06-22T14:22:33;2.70;;;1.73;;
23260;SDS011;11799;47.740;-3.390;2023-06-22T14:25:00;3.80;;;1.80;;
23260;SDS011;11799;47.740;-3.390;2023-06-22T14:27:26;3.33;;;2.20;;
23260;SDS011;11799;47.740;-3.390;2023-06-22T14:29:52;4.05;;;2.28;;
23260;SDS011;11799;47.740;-3.390;2023-06-22T14:32:18;3.42;;;1.95;;
23260;SDS011;11799;47.740;-3.390;2023-06-22T14:34:43;3.63;;;2.35;;
23260;SDS011;11799;47.740;-3.390;2023-06-22T14:37:10;3.00;;;2.15;;
23260;SDS011;11799;47.740;-3.390;2023-06-22T14:39:36;3.03;;;2.20;;
23260;SDS011;11799;47.740;-3.390;2023-06-22T14:42:02;2.97;;;2.35;;